createdAt,value
2018-05-24T00:04:34.236Z,8.27
2018-05-24T00:09:36.803Z,7.43
2018-05-24T00:14:39.364Z,7.40
2018-05-24T00:19:41.966Z,7.13
2018-05-24T00:24:44.526Z,8.87
2018-05-24T00:29:47.082Z,8.10
2018-05-24T00:34:49.609Z,8.70
2018-05-24T00:39:52.189Z,10.83
2018-05-24T00:44:54.787Z,6.07
2018-05-24T00:49:58.150Z,5.33
2018-05-24T00:55:12.704Z,7.50
2018-05-24T01:00:15.267Z,7.90
2018-05-24T01:05:18.591Z,6.20
2018-05-24T01:10:21.201Z,8.07
2018-05-24T01:15:23.851Z,8.80
2018-05-24T01:20:26.410Z,5.13
2018-05-24T01:25:29.006Z,6.87
2018-05-24T01:30:31.554Z,4.83
2018-05-24T01:35:34.131Z,3.50
2018-05-24T01:40:36.778Z,4.77
2018-05-24T01:45:39.320Z,3.70
2018-05-24T01:50:42.265Z,3.83
2018-05-24T01:55:44.849Z,3.90
2018-05-24T02:00:47.644Z,4.20
2018-05-24T02:05:50.218Z,2.80
2018-05-24T02:10:52.773Z,3.53
2018-05-24T02:15:55.386Z,4.67
2018-05-24T02:20:57.977Z,4.17
2018-05-24T02:26:01.135Z,3.47
2018-05-24T02:31:03.704Z,3.17
2018-05-24T02:36:06.531Z,3.80
2018-05-24T02:41:08.831Z,5.17
2018-05-24T02:46:11.430Z,4.43
2018-05-24T02:51:14.041Z,4.40
2018-05-24T02:56:16.766Z,4.63
2018-05-24T03:01:19.245Z,3.83
2018-05-24T03:06:21.836Z,4.93
2018-05-24T03:11:24.388Z,4.40
2018-05-24T03:16:27.016Z,3.87
2018-05-24T03:21:31.132Z,5.00
2018-05-24T03:26:34.525Z,5.97
2018-05-24T03:31:37.151Z,6.23
2018-05-24T03:36:40.518Z,4.50
2018-05-24T03:41:43.091Z,3.93
2018-05-24T03:46:45.644Z,6.17
2018-05-24T03:51:48.210Z,5.83
2018-05-24T03:56:50.817Z,6.10
2018-05-24T04:02:05.284Z,12.50
2018-05-24T04:07:07.919Z,5.30
2018-05-24T04:12:10.481Z,5.37
2018-05-24T04:17:13.069Z,3.70
2018-05-24T04:22:15.621Z,6.20
2018-05-24T04:27:18.204Z,3.80
2018-05-24T04:32:20.762Z,4.60
2018-05-24T04:37:23.400Z,6.77
2018-05-24T04:42:26.015Z,10.27
2018-05-24T04:47:28.594Z,5.10
2018-05-24T04:52:31.166Z,4.80
2018-05-24T04:57:33.807Z,7.47
2018-05-24T05:02:36.363Z,5.80
2018-05-24T05:07:39.508Z,4.70
2018-05-24T05:12:42.270Z,6.37
2018-05-24T05:17:45.377Z,8.57
2018-05-24T05:22:48.038Z,8.33
2018-05-24T05:27:50.745Z,6.07
2018-05-24T05:32:53.564Z,7.13
2018-05-24T05:37:56.420Z,10.90
2018-05-24T05:43:00.126Z,6.90
2018-05-24T05:48:03.070Z,12.40
2018-05-24T05:53:05.722Z,9.00
2018-05-24T05:58:08.530Z,9.00
2018-05-24T06:03:12.547Z,9.23
2018-05-24T06:08:15.258Z,7.57
2018-05-24T06:13:18.993Z,8.40
2018-05-24T06:18:22.535Z,8.03
2018-05-24T06:23:25.253Z,6.77
2018-05-24T06:28:28.274Z,8.00
2018-05-24T06:33:30.775Z,10.93
2018-05-24T06:38:33.800Z,9.00
2018-05-24T06:43:36.742Z,8.73
2018-05-24T06:48:39.577Z,5.87
2018-05-24T06:53:42.618Z,6.73
2018-05-24T06:58:45.563Z,5.83
2018-05-24T07:03:48.239Z,5.40
2018-05-24T07:08:50.785Z,8.77
2018-05-24T07:13:53.401Z,8.23
2018-05-24T07:18:56.012Z,7.73
2018-05-24T07:23:58.614Z,6.60
2018-05-24T07:29:01.235Z,9.50
2018-05-24T07:34:04.195Z,10.53
2018-05-24T07:39:06.769Z,11.00
2018-05-24T07:44:10.442Z,9.97
2018-05-24T07:49:13.043Z,8.57
2018-05-24T07:54:15.703Z,10.13
2018-05-24T07:59:18.330Z,10.30
2018-05-24T08:04:21.096Z,9.47
2018-05-24T08:09:23.755Z,8.53
2018-05-24T08:14:26.396Z,8.70
2018-05-24T08:19:28.951Z,10.80
2018-05-24T08:24:31.522Z,18.50
2018-05-24T08:29:34.221Z,10.17
2018-05-24T08:34:36.810Z,7.23
2018-05-24T08:39:39.349Z,8.50
2018-05-24T08:44:41.891Z,8.57
2018-05-24T08:49:44.425Z,9.93
2018-05-24T08:54:46.958Z,8.50
2018-05-24T08:59:49.496Z,8.60
2018-05-24T09:04:52.037Z,9.30
2018-05-24T09:09:54.729Z,9.10
2018-05-24T09:14:57.276Z,11.27
2018-05-24T09:19:59.890Z,10.83
2018-05-24T09:25:02.561Z,11.27
2018-05-24T09:30:05.201Z,11.40
2018-05-24T09:35:07.817Z,13.80
2018-05-24T09:40:10.659Z,13.87
2018-05-24T09:45:13.390Z,10.20
2018-05-24T09:50:16.062Z,12.50
2018-05-24T09:55:18.787Z,15.70
2018-05-24T10:00:22.939Z,14.33
2018-05-24T10:05:26.002Z,14.67
2018-05-24T10:10:28.908Z,13.47
2018-05-24T10:15:31.465Z,17.30
2018-05-24T10:20:34.154Z,14.73
2018-05-24T10:25:36.739Z,11.57
2018-05-24T10:30:39.362Z,15.60
2018-05-24T10:35:41.933Z,11.50
2018-05-24T10:40:44.538Z,15.60
2018-05-24T10:45:48.074Z,20.30
2018-05-24T10:50:50.735Z,12.80
2018-05-24T10:55:53.299Z,10.23
2018-05-24T11:00:55.836Z,16.53
2018-05-24T11:05:58.420Z,11.97
2018-05-24T11:11:01.108Z,13.00
2018-05-24T11:16:03.697Z,11.00
2018-05-24T11:21:06.364Z,16.33
2018-05-24T11:26:09.047Z,11.60
2018-05-24T11:31:11.614Z,10.27
2018-05-24T11:36:14.248Z,8.60
2018-05-24T11:41:16.835Z,9.20
2018-05-24T11:46:19.417Z,8.93
2018-05-24T11:51:22.005Z,11.47
2018-05-24T11:56:24.682Z,11.93
2018-05-24T12:01:27.268Z,11.40
2018-05-24T12:06:29.885Z,9.50
2018-05-24T12:11:32.525Z,10.00
2018-05-24T12:16:35.232Z,15.00
2018-05-24T12:21:37.867Z,12.93
2018-05-24T12:26:40.456Z,10.10
2018-05-24T12:31:43.090Z,11.37
2018-05-24T12:36:45.770Z,11.33
2018-05-24T12:41:48.446Z,10.50
2018-05-24T12:46:51.663Z,17.03
2018-05-24T12:51:54.242Z,10.30
2018-05-24T12:56:56.952Z,13.37
2018-05-24T13:01:59.496Z,10.80
2018-05-24T13:07:02.066Z,13.80
2018-05-24T13:12:04.615Z,11.90
2018-05-24T13:17:07.231Z,10.33
2018-05-24T13:22:09.730Z,10.63
2018-05-24T13:27:13.260Z,11.47
2018-05-24T13:32:15.933Z,12.00
2018-05-24T13:37:20.227Z,6.97
2018-05-24T13:42:23.778Z,10.20
2018-05-24T13:47:27.168Z,8.57
2018-05-24T13:52:29.757Z,5.80
2018-05-24T13:57:44.236Z,6.67
2018-05-24T14:02:47.586Z,6.70
2018-05-24T14:07:50.117Z,6.20
2018-05-24T14:12:52.723Z,8.00
2018-05-24T14:17:55.362Z,4.90
2018-05-24T14:22:57.984Z,6.73
2018-05-24T14:28:01.348Z,9.87
2018-05-24T14:33:03.920Z,7.90
2018-05-24T14:38:06.485Z,8.50
2018-05-24T14:43:09.081Z,5.97
2018-05-24T14:48:11.660Z,7.23
2018-05-24T14:53:14.235Z,7.70
2018-05-24T14:58:18.244Z,6.10
2018-05-24T15:03:21.603Z,5.97
2018-05-24T15:08:24.310Z,5.37
2018-05-24T15:13:39.665Z,3.83
2018-05-24T15:18:42.320Z,6.00
2018-05-24T15:23:45.065Z,6.30
2018-05-24T15:28:47.825Z,5.27
2018-05-24T15:33:50.435Z,4.53
2018-05-24T15:38:53.099Z,5.57
2018-05-24T15:43:56.432Z,5.43
2018-05-24T15:48:59.066Z,3.60
2018-05-24T15:54:01.557Z,4.23
2018-05-24T15:59:04.135Z,3.53
2018-05-24T16:04:06.702Z,2.93
2018-05-24T16:09:09.491Z,4.53
2018-05-24T16:14:12.082Z,3.87
2018-05-24T16:19:14.621Z,4.27
2018-05-24T16:24:17.249Z,2.83
2018-05-24T16:29:19.804Z,2.80
2018-05-24T16:34:22.635Z,4.10
2018-05-24T16:39:25.417Z,6.90
2018-05-24T16:44:28.012Z,3.33
2018-05-24T16:49:30.588Z,5.97
2018-05-24T16:54:33.357Z,6.87
2018-05-24T16:59:35.901Z,6.00
2018-05-24T17:04:38.447Z,6.13
2018-05-24T17:09:41.145Z,9.23
2018-05-24T17:14:43.743Z,5.27
2018-05-24T17:19:46.305Z,5.30
2018-05-24T17:24:49.666Z,8.43
2018-05-24T17:29:52.304Z,6.33
2018-05-24T17:34:54.895Z,8.87
2018-05-24T17:39:57.504Z,9.80
2018-05-24T17:45:00.811Z,5.67
2018-05-24T17:50:03.389Z,6.60
2018-05-24T17:55:06.019Z,7.27
2018-05-24T18:00:08.651Z,4.40
2018-05-24T18:05:12.489Z,7.10
2018-05-24T18:10:15.114Z,6.07
2018-05-24T18:15:17.753Z,5.30
2018-05-24T18:20:20.424Z,5.97
2018-05-24T18:25:23.097Z,6.80
2018-05-24T18:30:25.676Z,6.57
2018-05-24T18:35:28.277Z,9.87
2018-05-24T18:40:30.818Z,5.80
2018-05-24T18:45:33.447Z,4.93
2018-05-24T18:50:36.029Z,5.97
2018-05-24T18:55:38.617Z,5.50
2018-05-24T19:00:41.234Z,7.07
2018-05-24T19:05:43.829Z,6.27
2018-05-24T19:10:46.459Z,7.07
2018-05-24T19:15:49.038Z,6.47
2018-05-24T19:20:51.684Z,6.90
2018-05-24T19:25:54.197Z,7.77
2018-05-24T19:30:56.840Z,7.27
2018-05-24T19:35:59.410Z,8.70
2018-05-24T19:41:02.042Z,7.10
2018-05-24T19:46:04.764Z,7.67
2018-05-24T19:51:07.349Z,7.73
2018-05-24T19:56:09.908Z,6.53
2018-05-24T20:01:12.462Z,6.77
2018-05-24T20:06:15.803Z,5.50
2018-05-24T20:11:18.435Z,7.47
2018-05-24T20:16:21.002Z,7.30
2018-05-24T20:21:23.548Z,9.80
2018-05-24T20:26:26.114Z,6.90
2018-05-24T20:31:28.695Z,6.70
2018-05-24T20:36:31.273Z,7.27
2018-05-24T20:41:33.920Z,14.33
2018-05-24T20:46:36.516Z,40.73
2018-05-24T20:51:39.101Z,27.93
2018-05-24T20:56:41.729Z,22.67
2018-05-24T21:01:44.393Z,10.13
2018-05-24T21:06:46.920Z,9.60
2018-05-24T21:11:49.528Z,7.03
2018-05-24T21:16:52.190Z,7.60
2018-05-24T21:21:54.789Z,7.10
2018-05-24T21:26:57.347Z,6.33
2018-05-24T21:31:59.899Z,5.67
2018-05-24T21:37:02.462Z,13.83
2018-05-24T21:42:05.021Z,6.53
2018-05-24T21:47:07.605Z,7.33
2018-05-24T21:52:10.179Z,9.80
2018-05-24T21:57:12.826Z,7.60
2018-05-24T22:02:15.373Z,5.63
2018-05-24T22:07:18.800Z,7.80
2018-05-24T22:12:21.372Z,8.93
2018-05-24T22:17:23.957Z,6.53
2018-05-24T22:22:26.523Z,8.37
2018-05-24T22:27:29.126Z,6.37
2018-05-24T22:32:31.712Z,8.20
2018-05-24T22:37:34.265Z,10.60
2018-05-24T22:42:36.858Z,14.83
2018-05-24T22:47:39.407Z,8.80
2018-05-24T22:52:41.952Z,6.90
2018-05-24T22:57:44.526Z,6.80
2018-05-24T23:02:47.080Z,5.67
2018-05-24T23:07:50.443Z,5.93
2018-05-24T23:12:52.992Z,6.77
2018-05-24T23:17:55.722Z,8.83
2018-05-24T23:22:58.269Z,8.30
2018-05-24T23:28:00.834Z,7.77
2018-05-24T23:33:03.469Z,7.97
2018-05-24T23:38:06.069Z,7.33
2018-05-24T23:43:08.618Z,5.80
2018-05-24T23:48:11.133Z,8.17
2018-05-24T23:53:13.672Z,8.70
2018-05-24T23:58:16.218Z,5.93
